sensor_id;sensor_type;location;lat;lon;timestamp;pressure;altitude;pressure_sealevel;temperature;humidity
46347;BME280;32057;47.830;19.046;2023-02-21T00:01:28;100144.53;;;6.23;100.00
46347;BME280;32057;47.830;19.046;2023-02-21T00:04:12;100140.53;;;6.33;100.00
46347;BME280;32057;47.830;19.046;2023-02-21T00:06:56;100145.00;;;6.13;100.00
46347;BME280;32057;47.830;19.046;2023-02-21T00:09:40;100140.19;;;5.98;100.00
46347;BME280;32057;47.830;19.046;2023-02-21T00:12:24;100127.03;;;5.92;100.00
46347;BME280;32057;47.830;19.046;2023-02-21T00:15:08;100126.69;;;5.83;100.00
46347;BME280;32057;47.830;19.046;2023-02-21T00:17:53;100131.47;;;5.72;100.00
46347;BME280;32057;47.830;19.046;2023-02-21T00:20:37;100137.19;;;5.63;100.00
46347;BME280;32057;47.830;19.046;2023-02-21T00:23:21;100130.53;;;5.70;100.00
46347;BME280;32057;47.830;19.046;2023-02-21T00:26:05;100119.66;;;5.78;100.00
46347;BME280;32057;47.830;19.046;2023-02-21T00:28:49;100124.09;;;5.83;100.00
46347;BME280;32057;47.830;19.046;2023-02-21T00:31:33;100126.75;;;5.84;100.00
46347;BME280;32057;47.830;19.046;2023-02-21T00:34:17;100103.34;;;5.79;100.00
46347;BME280;32057;47.830;19.046;2023-02-21T00:37:01;100104.22;;;5.56;100.00
46347;BME280;32057;47.830;19.046;2023-02-21T00:39:45;100109.88;;;5.46;100.00
46347;BME280;32057;47.830;19.046;2023-02-21T00:42:28;100102.31;;;5.28;100.00
46347;BME280;32057;47.830;19.046;2023-02-21T00:45:12;100085.13;;;5.28;100.00
46347;BME280;32057;47.830;19.046;2023-02-21T00:47:56;100068.13;;;5.33;100.00
46347;BME280;32057;47.830;19.046;2023-02-21T00:50:40;100076.69;;;5.10;100.00
46347;BME280;32057;47.830;19.046;2023-02-21T00:53:24;100080.97;;;5.09;100.00
46347;BME280;32057;47.830;19.046;2023-02-21T00:56:08;100081.94;;;5.11;100.00
46347;BME280;32057;47.830;19.046;2023-02-21T00:58:52;100075.81;;;5.09;100.00
46347;BME280;32057;47.830;19.046;2023-02-21T01:01:36;100081.03;;;5.11;100.00
46347;BME280;32057;47.830;19.046;2023-02-21T01:04:20;100077.72;;;5.15;100.00
46347;BME280;32057;47.830;19.046;2023-02-21T01:07:04;100079.75;;;4.99;100.00
46347;BME280;32057;47.830;19.046;2023-02-21T01:09:48;100079.44;;;4.92;100.00
46347;BME280;32057;47.830;19.046;2023-02-21T01:12:32;100076.00;;;4.91;100.00
46347;BME280;32057;47.830;19.046;2023-02-21T01:15:16;100085.25;;;4.86;100.00
46347;BME280;32057;47.830;19.046;2023-02-21T01:18:00;100091.47;;;4.91;100.00
46347;BME280;32057;47.830;19.046;2023-02-21T01:20:44;100085.09;;;4.83;100.00
46347;BME280;32057;47.830;19.046;2023-02-21T01:23:28;100091.25;;;4.87;100.00
46347;BME280;32057;47.830;19.046;2023-02-21T01:26:12;100100.84;;;4.68;100.00
46347;BME280;32057;47.830;19.046;2023-02-21T01:28:56;100097.66;;;4.96;100.00
46347;BME280;32057;47.830;19.046;2023-02-21T01:31:40;100077.97;;;5.21;100.00
46347;BME280;32057;47.830;19.046;2023-02-21T01:34:24;100084.75;;;5.19;100.00
46347;BME280;32057;47.830;19.046;2023-02-21T01:37:07;100077.88;;;5.18;100.00
46347;BME280;32057;47.830;19.046;2023-02-21T01:39:51;100081.75;;;5.29;100.00
46347;BME280;32057;47.830;19.046;2023-02-21T01:42:35;100083.50;;;5.54;100.00
46347;BME280;32057;47.830;19.046;2023-02-21T01:48:05;100072.31;;;5.78;100.00
46347;BME280;32057;47.830;19.046;2023-02-21T01:50:51;100060.59;;;6.37;99.90
46347;BME280;32057;47.830;19.046;2023-02-21T01:53:38;100064.63;;;6.29;99.62
46347;BME280;32057;47.830;19.046;2023-02-21T01:56:22;100055.78;;;6.23;100.00
46347;BME280;32057;47.830;19.046;2023-02-21T01:59:06;100068.81;;;6.00;100.00
46347;BME280;32057;47.830;19.046;2023-02-21T02:01:59;100060.25;;;6.01;99.67
46347;BME280;32057;47.830;19.046;2023-02-21T02:04:46;100067.47;;;5.87;100.00
46347;BME280;32057;47.830;19.046;2023-02-21T02:07:31;100071.97;;;5.69;99.20
46347;BME280;32057;47.830;19.046;2023-02-21T02:10:15;100070.38;;;5.48;98.49
46347;BME280;32057;47.830;19.046;2023-02-21T02:16:01;100066.47;;;5.13;100.00
46347;BME280;32057;47.830;19.046;2023-02-21T02:32:40;100056.81;;;4.85;100.00
46347;BME280;32057;47.830;19.046;2023-02-21T02:35:49;100062.13;;;4.67;100.00
46347;BME280;32057;47.830;19.046;2023-02-21T02:41:03;100056.06;;;5.10;100.00
46347;BME280;32057;47.830;19.046;2023-02-21T02:43:31;100056.22;;;5.14;100.00
46347;BME280;32057;47.830;19.046;2023-02-21T02:46:04;100052.13;;;5.19;100.00
46347;BME280;32057;47.830;19.046;2023-02-21T02:48:35;100042.25;;;5.32;100.00
46347;BME280;32057;47.830;19.046;2023-02-21T02:51:06;100037.59;;;5.46;100.00
46347;BME280;32057;47.830;19.046;2023-02-21T02:53:32;100040.50;;;5.31;100.00
46347;BME280;32057;47.830;19.046;2023-02-21T02:55:59;100036.47;;;5.15;100.00
46347;BME280;32057;47.830;19.046;2023-02-21T02:58:27;100031.97;;;5.09;100.00
46347;BME280;32057;47.830;19.046;2023-02-21T03:15:20;100049.84;;;4.17;100.00
46347;BME280;32057;47.830;19.046;2023-02-21T03:17:56;100053.38;;;4.19;100.00
46347;BME280;32057;47.830;19.046;2023-02-21T03:20:24;100053.09;;;4.34;100.00
46347;BME280;32057;47.830;19.046;2023-02-21T03:22:51;100067.19;;;4.43;100.00
46347;BME280;32057;47.830;19.046;2023-02-21T03:25:20;100061.88;;;4.61;100.00
46347;BME280;32057;47.830;19.046;2023-02-21T03:27:47;100068.69;;;4.58;100.00
46347;BME280;32057;47.830;19.046;2023-02-21T03:30:14;100067.03;;;4.61;100.00
46347;BME280;32057;47.830;19.046;2023-02-21T03:32:44;100058.53;;;4.84;100.00
46347;BME280;32057;47.830;19.046;2023-02-21T03:35:12;100065.25;;;4.81;100.00
46347;BME280;32057;47.830;19.046;2023-02-21T03:37:40;100057.69;;;4.85;100.00
46347;BME280;32057;47.830;19.046;2023-02-21T03:42:38;100055.59;;;5.20;100.00
46347;BME280;32057;47.830;19.046;2023-02-21T03:45:04;100063.63;;;5.52;100.00
46347;BME280;32057;47.830;19.046;2023-02-21T03:47:29;100053.09;;;5.46;100.00
46347;BME280;32057;47.830;19.046;2023-02-21T03:49:55;100045.06;;;5.38;100.00
46347;BME280;32057;47.830;19.046;2023-02-21T03:52:20;100035.03;;;5.23;100.00
46347;BME280;32057;47.830;19.046;2023-02-21T03:54:45;100041.84;;;5.21;100.00
46347;BME280;32057;47.830;19.046;2023-02-21T03:57:11;100040.88;;;5.17;100.00
46347;BME280;32057;47.830;19.046;2023-02-21T03:59:37;100039.88;;;5.14;100.00
46347;BME280;32057;47.830;19.046;2023-02-21T04:02:03;100040.47;;;5.07;100.00
46347;BME280;32057;47.830;19.046;2023-02-21T04:04:28;100050.63;;;5.02;100.00
46347;BME280;32057;47.830;19.046;2023-02-21T04:06:54;100061.81;;;5.03;100.00
46347;BME280;32057;47.830;19.046;2023-02-21T04:09:19;100065.31;;;5.05;100.00
46347;BME280;32057;47.830;19.046;2023-02-21T04:11:45;100065.78;;;5.39;100.00
46347;BME280;32057;47.830;19.046;2023-02-21T04:14:11;100070.22;;;5.44;100.00
46347;BME280;32057;47.830;19.046;2023-02-21T04:16:37;100063.69;;;5.53;100.00
46347;BME280;32057;47.830;19.046;2023-02-21T04:19:02;100067.97;;;5.53;100.00
46347;BME280;32057;47.830;19.046;2023-02-21T04:21:28;100070.81;;;5.85;100.00
46347;BME280;32057;47.830;19.046;2023-02-21T04:23:53;100079.13;;;5.76;100.00
46347;BME280;32057;47.830;19.046;2023-02-21T04:26:19;100081.28;;;5.64;100.00
46347;BME280;32057;47.830;19.046;2023-02-21T04:28:44;100081.75;;;5.53;100.00
46347;BME280;32057;47.830;19.046;2023-02-21T04:31:10;100087.75;;;5.76;100.00
46347;BME280;32057;47.830;19.046;2023-02-21T04:33:35;100078.84;;;5.68;100.00
46347;BME280;32057;47.830;19.046;2023-02-21T04:36:01;100082.50;;;5.51;100.00
46347;BME280;32057;47.830;19.046;2023-02-21T04:38:26;100076.59;;;5.53;100.00
46347;BME280;32057;47.830;19.046;2023-02-21T04:40:52;100070.31;;;5.47;100.00
46347;BME280;32057;47.830;19.046;2023-02-21T04:43:17;100066.59;;;5.38;100.00
46347;BME280;32057;47.830;19.046;2023-02-21T04:45:43;100061.63;;;5.45;100.00
46347;BME280;32057;47.830;19.046;2023-02-21T04:48:08;100072.16;;;5.49;100.00
46347;BME280;32057;47.830;19.046;2023-02-21T04:50:34;100065.28;;;5.50;100.00
46347;BME280;32057;47.830;19.046;2023-02-21T04:52:59;100060.22;;;5.53;100.00
46347;BME280;32057;47.830;19.046;2023-02-21T04:55:24;100055.53;;;5.65;100.00
46347;BME280;32057;47.830;19.046;2023-02-21T04:57:50;100039.22;;;5.92;100.00
46347;BME280;32057;47.830;19.046;2023-02-21T05:00:15;100037.09;;;6.04;100.00
46347;BME280;32057;47.830;19.046;2023-02-21T05:02:42;100033.56;;;6.28;100.00
46347;BME280;32057;47.830;19.046;2023-02-21T05:05:08;100025.41;;;6.41;100.00
46347;BME280;32057;47.830;19.046;2023-02-21T05:07:33;100027.00;;;6.37;99.96
46347;BME280;32057;47.830;19.046;2023-02-21T05:09:58;100026.94;;;6.36;100.00
46347;BME280;32057;47.830;19.046;2023-02-21T05:12:24;100021.88;;;6.39;100.00
46347;BME280;32057;47.830;19.046;2023-02-21T05:14:49;100029.66;;;6.41;99.68
46347;BME280;32057;47.830;19.046;2023-02-21T05:17:15;100029.84;;;6.20;99.78
46347;BME280;32057;47.830;19.046;2023-02-21T05:19:40;100035.38;;;6.05;100.00
46347;BME280;32057;47.830;19.046;2023-02-21T05:22:06;100031.66;;;5.96;100.00
46347;BME280;32057;47.830;19.046;2023-02-21T05:24:32;100033.63;;;6.04;100.00
46347;BME280;32057;47.830;19.046;2023-02-21T05:26:58;100020.78;;;6.05;100.00
46347;BME280;32057;47.830;19.046;2023-02-21T05:29:24;100019.78;;;6.02;100.00
46347;BME280;32057;47.830;19.046;2023-02-21T05:31:50;100020.13;;;6.12;100.00
46347;BME280;32057;47.830;19.046;2023-02-21T05:34:15;100026.22;;;6.14;100.00
46347;BME280;32057;47.830;19.046;2023-02-21T05:36:43;100032.75;;;6.03;100.00
46347;BME280;32057;47.830;19.046;2023-02-21T05:39:08;100018.41;;;6.11;100.00
46347;BME280;32057;47.830;19.046;2023-02-21T05:41:34;100020.19;;;6.14;100.00
46347;BME280;32057;47.830;19.046;2023-02-21T05:44:01;100017.56;;;6.12;100.00
46347;BME280;32057;47.830;19.046;2023-02-21T05:46:29;100019.72;;;6.26;100.00
46347;BME280;32057;47.830;19.046;2023-02-21T05:48:55;100017.75;;;6.18;100.00
46347;BME280;32057;47.830;19.046;2023-02-21T05:51:22;100025.63;;;6.22;100.00
46347;BME280;32057;47.830;19.046;2023-02-21T05:53:48;100030.72;;;6.20;100.00
46347;BME280;32057;47.830;19.046;2023-02-21T05:56:14;100035.09;;;6.23;100.00
46347;BME280;32057;47.830;19.046;2023-02-21T05:58:40;100033.97;;;6.14;100.00
46347;BME280;32057;47.830;19.046;2023-02-21T06:01:06;100031.59;;;6.21;100.00
46347;BME280;32057;47.830;19.046;2023-02-21T06:03:32;100036.97;;;6.27;100.00
46347;BME280;32057;47.830;19.046;2023-02-21T06:05:57;100039.66;;;6.30;100.00
46347;BME280;32057;47.830;19.046;2023-02-21T06:08:23;100043.25;;;6.35;100.00
46347;BME280;32057;47.830;19.046;2023-02-21T06:10:49;100045.28;;;6.44;99.83
46347;BME280;32057;47.830;19.046;2023-02-21T06:13:15;100045.53;;;6.51;99.30
46347;BME280;32057;47.830;19.046;2023-02-21T06:15:41;100042.22;;;6.55;98.93
46347;BME280;32057;47.830;19.046;2023-02-21T06:18:06;100048.84;;;6.47;100.00
46347;BME280;32057;47.830;19.046;2023-02-21T06:20:31;100055.69;;;6.47;100.00
46347;BME280;32057;47.830;19.046;2023-02-21T06:22:57;100050.34;;;6.41;100.00
46347;BME280;32057;47.830;19.046;2023-02-21T06:25:22;100054.94;;;6.49;100.00
46347;BME280;32057;47.830;19.046;2023-02-21T06:27:48;100052.69;;;6.60;100.00
46347;BME280;32057;47.830;19.046;2023-02-21T06:30:13;100060.16;;;6.78;99.82
46347;BME280;32057;47.830;19.046;2023-02-21T06:32:40;100047.41;;;6.84;100.00
46347;BME280;32057;47.830;19.046;2023-02-21T06:35:06;100057.38;;;6.99;96.74
46347;BME280;32057;47.830;19.046;2023-02-21T06:37:32;100051.41;;;7.02;96.81
46347;BME280;32057;47.830;19.046;2023-02-21T06:39:57;100074.63;;;7.00;97.97
46347;BME280;32057;47.830;19.046;2023-02-21T06:42:23;100080.97;;;7.10;95.96
46347;BME280;32057;47.830;19.046;2023-02-21T06:44:48;100077.00;;;7.21;95.33
46347;BME280;32057;47.830;19.046;2023-02-21T06:47:14;100081.69;;;7.34;94.14
46347;BME280;32057;47.830;19.046;2023-02-21T06:49:41;100082.81;;;7.44;94.58
46347;BME280;32057;47.830;19.046;2023-02-21T06:52:07;100091.00;;;7.58;94.64
46347;BME280;32057;47.830;19.046;2023-02-21T06:54:33;100093.09;;;7.71;92.05
46347;BME280;32057;47.830;19.046;2023-02-21T06:56:59;100098.44;;;7.77;92.65
46347;BME280;32057;47.830;19.046;2023-02-21T06:59:27;100097.81;;;7.86;93.73
46347;BME280;32057;47.830;19.046;2023-02-21T07:01:53;100089.28;;;7.90;92.82
46347;BME280;32057;47.830;19.046;2023-02-21T07:04:18;100092.09;;;7.98;92.53
46347;BME280;32057;47.830;19.046;2023-02-21T07:06:44;100093.16;;;8.06;92.10
46347;BME280;32057;47.830;19.046;2023-02-21T07:09:09;100099.38;;;8.11;91.19
46347;BME280;32057;47.830;19.046;2023-02-21T07:11:35;100099.53;;;8.17;92.26
46347;BME280;32057;47.830;19.046;2023-02-21T07:14:00;100103.28;;;8.29;91.59
46347;BME280;32057;47.830;19.046;2023-02-21T07:16:26;100094.91;;;8.39;90.39
46347;BME280;32057;47.830;19.046;2023-02-21T07:18:52;100092.59;;;8.50;89.57
46347;BME280;32057;47.830;19.046;2023-02-21T07:21:19;100098.13;;;8.64;90.36
46347;BME280;32057;47.830;19.046;2023-02-21T07:23:46;100088.09;;;8.77;89.51
46347;BME280;32057;47.830;19.046;2023-02-21T07:26:12;100093.50;;;8.88;88.71
46347;BME280;32057;47.830;19.046;2023-02-21T07:28:37;100088.63;;;9.01;88.54
46347;BME280;32057;47.830;19.046;2023-02-21T07:31:03;100101.88;;;9.13;87.88
46347;BME280;32057;47.830;19.046;2023-02-21T07:33:29;100103.88;;;9.26;87.95
46347;BME280;32057;47.830;19.046;2023-02-21T07:35:54;100098.59;;;9.22;86.25
46347;BME280;32057;47.830;19.046;2023-02-21T07:38:28;100091.94;;;9.33;85.41
46347;BME280;32057;47.830;19.046;2023-02-21T07:41:00;100083.66;;;9.51;87.35
46347;BME280;32057;47.830;19.046;2023-02-21T07:43:26;100082.19;;;9.65;86.16
46347;BME280;32057;47.830;19.046;2023-02-21T07:45:52;100072.03;;;9.77;85.09
46347;BME280;32057;47.830;19.046;2023-02-21T07:48:18;100076.44;;;9.82;84.29
46347;BME280;32057;47.830;19.046;2023-02-21T07:50:44;100077.44;;;9.88;84.81
46347;BME280;32057;47.830;19.046;2023-02-21T07:53:10;100062.97;;;10.01;85.45
46347;BME280;32057;47.830;19.046;2023-02-21T07:55:36;100059.59;;;10.08;84.73
46347;BME280;32057;47.830;19.046;2023-02-21T07:58:02;100051.16;;;10.19;84.13
46347;BME280;32057;47.830;19.046;2023-02-21T08:00:27;100055.72;;;10.32;83.06
46347;BME280;32057;47.830;19.046;2023-02-21T08:02:53;100055.09;;;10.45;81.89
46347;BME280;32057;47.830;19.046;2023-02-21T08:05:19;100044.75;;;10.50;81.63
46347;BME280;32057;47.830;19.046;2023-02-21T08:07:45;100055.38;;;10.64;82.41
46347;BME280;32057;47.830;19.046;2023-02-21T08:10:12;100056.28;;;10.66;82.67
46347;BME280;32057;47.830;19.046;2023-02-21T08:12:38;100059.94;;;10.80;81.42
46347;BME280;32057;47.830;19.046;2023-02-21T08:15:03;100060.97;;;10.88;81.48
46347;BME280;32057;47.830;19.046;2023-02-21T08:17:30;100070.84;;;10.54;80.84
46347;BME280;32057;47.830;19.046;2023-02-21T08:19:55;100069.13;;;10.55;80.66
46347;BME280;32057;47.830;19.046;2023-02-21T08:22:21;100065.03;;;10.71;80.51
46347;BME280;32057;47.830;19.046;2023-02-21T08:24:49;100060.03;;;10.86;82.99
46347;BME280;32057;47.830;19.046;2023-02-21T08:27:15;100077.44;;;10.87;80.93
46347;BME280;32057;47.830;19.046;2023-02-21T08:29:41;100065.47;;;10.99;81.49
46347;BME280;32057;47.830;19.046;2023-02-21T08:32:06;100068.25;;;11.12;81.61
46347;BME280;32057;47.830;19.046;2023-02-21T08:34:33;100064.00;;;11.19;80.80
46347;BME280;32057;47.830;19.046;2023-02-21T08:36:58;100069.16;;;11.16;78.15
46347;BME280;32057;47.830;19.046;2023-02-21T08:39:23;100061.50;;;11.27;78.93
46347;BME280;32057;47.830;19.046;2023-02-21T08:41:49;100063.69;;;10.98;80.10
46347;BME280;32057;47.830;19.046;2023-02-21T08:44:17;100070.75;;;11.05;81.09
46347;BME280;32057;47.830;19.046;2023-02-21T08:46:45;100072.47;;;11.06;80.53
46347;BME280;32057;47.830;19.046;2023-02-21T08:49:11;100067.41;;;11.15;80.60
46347;BME280;32057;47.830;19.046;2023-02-21T08:51:36;100076.16;;;11.19;79.83
46347;BME280;32057;47.830;19.046;2023-02-21T08:54:02;100076.13;;;11.17;78.55
46347;BME280;32057;47.830;19.046;2023-02-21T08:56:28;100074.47;;;11.24;79.76
46347;BME280;32057;47.830;19.046;2023-02-21T08:58:55;100062.22;;;11.18;80.05
46347;BME280;32057;47.830;19.046;2023-02-21T09:01:22;100070.19;;;11.27;80.49
46347;BME280;32057;47.830;19.046;2023-02-21T09:03:48;100082.31;;;11.25;79.10
46347;BME280;32057;47.830;19.046;2023-02-21T09:06:14;100076.34;;;11.34;78.68
46347;BME280;32057;47.830;19.046;2023-02-21T09:08:39;100069.91;;;11.07;79.91
46347;BME280;32057;47.830;19.046;2023-02-21T09:11:05;100076.25;;;11.26;80.06
46347;BME280;32057;47.830;19.046;2023-02-21T09:13:31;100076.13;;;11.17;79.76
46347;BME280;32057;47.830;19.046;2023-02-21T09:15:58;100080.84;;;11.44;79.05
46347;BME280;32057;47.830;19.046;2023-02-21T09:18:24;100086.63;;;11.23;78.77
46347;BME280;32057;47.830;19.046;2023-02-21T09:20:50;100079.50;;;11.11;80.53
46347;BME280;32057;47.830;19.046;2023-02-21T09:23:20;100096.81;;;11.08;80.93
46347;BME280;32057;47.830;19.046;2023-02-21T09:25:49;100082.97;;;11.09;80.51
46347;BME280;32057;47.830;19.046;2023-02-21T09:28:16;100104.78;;;11.20;80.22
46347;BME280;32057;47.830;19.046;2023-02-21T09:30:41;100095.25;;;11.19;81.25
46347;BME280;32057;47.830;19.046;2023-02-21T09:33:08;100083.97;;;11.20;80.00
46347;BME280;32057;47.830;19.046;2023-02-21T09:35:34;100101.41;;;11.26;80.59
46347;BME280;32057;47.830;19.046;2023-02-21T09:38:00;100100.47;;;11.19;80.15
46347;BME280;32057;47.830;19.046;2023-02-21T09:40:40;100113.22;;;11.01;80.79
46347;BME280;32057;47.830;19.046;2023-02-21T09:43:12;100115.78;;;10.99;81.33
46347;BME280;32057;47.830;19.046;2023-02-21T09:45:40;100114.13;;;11.06;81.63
46347;BME280;32057;47.830;19.046;2023-02-21T09:48:11;100119.56;;;11.20;81.31
46347;BME280;32057;47.830;19.046;2023-02-21T09:50:45;100110.13;;;11.28;81.07
46347;BME280;32057;47.830;19.046;2023-02-21T09:53:15;100118.69;;;11.19;81.16
46347;BME280;32057;47.830;19.046;2023-02-21T09:55:41;100112.59;;;11.17;80.99
46347;BME280;32057;47.830;19.046;2023-02-21T09:58:12;100116.31;;;11.34;80.21
46347;BME280;32057;47.830;19.046;2023-02-21T10:00:38;100114.31;;;11.18;80.97
46347;BME280;32057;47.830;19.046;2023-02-21T10:05:46;100117.19;;;11.36;80.61
46347;BME280;32057;47.830;19.046;2023-02-21T10:08:29;100126.44;;;11.16;80.79
46347;BME280;32057;47.830;19.046;2023-02-21T10:14:18;100120.63;;;11.34;81.02
46347;BME280;32057;47.830;19.046;2023-02-21T10:17:04;100127.69;;;11.43;81.00
46347;BME280;32057;47.830;19.046;2023-02-21T10:19:41;100120.00;;;11.52;81.83
46347;BME280;32057;47.830;19.046;2023-02-21T10:22:34;100128.88;;;11.68;81.63
46347;BME280;32057;47.830;19.046;2023-02-21T10:25:19;100118.69;;;11.88;79.93
46347;BME280;32057;47.830;19.046;2023-02-21T10:27:45;100109.03;;;11.77;80.25
46347;BME280;32057;47.830;19.046;2023-02-21T10:30:19;100103.03;;;11.85;80.02
46347;BME280;32057;47.830;19.046;2023-02-21T10:32:49;100105.84;;;12.02;79.65
46347;BME280;32057;47.830;19.046;2023-02-21T10:35:15;100096.97;;;11.87;80.15
46347;BME280;32057;47.830;19.046;2023-02-21T10:37:52;100104.94;;;11.98;80.37
46347;BME280;32057;47.830;19.046;2023-02-21T10:43:10;100096.44;;;12.18;80.10
46347;BME280;32057;47.830;19.046;2023-02-21T10:45:44;100111.31;;;12.28;80.24
46347;BME280;32057;47.830;19.046;2023-02-21T10:48:10;100102.66;;;12.29;78.87
46347;BME280;32057;47.830;19.046;2023-02-21T10:50:49;100118.09;;;12.09;78.47
46347;BME280;32057;47.830;19.046;2023-02-21T10:53:42;100106.81;;;12.08;79.31
46347;BME280;32057;47.830;19.046;2023-02-21T10:59:05;100109.41;;;12.08;79.85
46347;BME280;32057;47.830;19.046;2023-02-21T11:01:49;100105.25;;;12.27;79.20
46347;BME280;32057;47.830;19.046;2023-02-21T11:06:57;100100.19;;;12.44;78.66
46347;BME280;32057;47.830;19.046;2023-02-21T11:12:01;100091.63;;;12.61;78.49
46347;BME280;32057;47.830;19.046;2023-02-21T11:14:27;100090.13;;;12.90;77.23
46347;BME280;32057;47.830;19.046;2023-02-21T11:19:55;100074.50;;;13.01;77.83
46347;BME280;32057;47.830;19.046;2023-02-21T11:22:39;100073.47;;;12.78;76.87
46347;BME280;32057;47.830;19.046;2023-02-21T11:28:02;100084.88;;;12.87;76.44
46347;BME280;32057;47.830;19.046;2023-02-21T11:30:31;100077.13;;;13.01;75.99
46347;BME280;32057;47.830;19.046;2023-02-21T11:32:58;100069.22;;;12.90;75.80
46347;BME280;32057;47.830;19.046;2023-02-21T11:35:32;100077.00;;;12.86;75.04
46347;BME280;32057;47.830;19.046;2023-02-21T11:38:05;100061.50;;;13.09;74.27
46347;BME280;32057;47.830;19.046;2023-02-21T11:40:48;100057.19;;;13.14;76.11
46347;BME280;32057;47.830;19.046;2023-02-21T11:43:31;100055.63;;;13.50;74.96
46347;BME280;32057;47.830;19.046;2023-02-21T11:46:16;100053.94;;;13.61;73.94
46347;BME280;32057;47.830;19.046;2023-02-21T11:51:33;100058.22;;;13.42;73.81
46347;BME280;32057;47.830;19.046;2023-02-21T11:54:03;100059.81;;;13.17;72.73
46347;BME280;32057;47.830;19.046;2023-02-21T11:59:45;100055.44;;;13.14;74.62
46347;BME280;32057;47.830;19.046;2023-02-21T12:07:58;100065.97;;;13.28;74.34
46347;BME280;32057;47.830;19.046;2023-02-21T12:16:06;100039.75;;;13.14;73.99
46347;BME280;32057;47.830;19.046;2023-02-21T12:24:18;100026.53;;;12.85;74.94
46347;BME280;32057;47.830;19.046;2023-02-21T12:40:32;100033.72;;;13.20;73.17
46347;BME280;32057;47.830;19.046;2023-02-21T12:50:41;100036.44;;;13.39;72.36
46347;BME280;32057;47.830;19.046;2023-02-21T12:56:15;100036.41;;;13.32;72.09
46347;BME280;32057;47.830;19.046;2023-02-21T12:59:02;100040.59;;;13.07;73.17
46347;BME280;32057;47.830;19.046;2023-02-21T13:01:42;100033.59;;;13.03;73.74
46347;BME280;32057;47.830;19.046;2023-02-21T13:04:27;100028.38;;;13.03;73.03
46347;BME280;32057;47.830;19.046;2023-02-21T13:12:55;100027.41;;;12.84;75.40
46347;BME280;32057;47.830;19.046;2023-02-21T13:15:28;100019.56;;;12.86;73.92
46347;BME280;32057;47.830;19.046;2023-02-21T13:18:06;100023.88;;;12.78;74.56
46347;BME280;32057;47.830;19.046;2023-02-21T13:20:39;100032.53;;;12.70;76.55
46347;BME280;32057;47.830;19.046;2023-02-21T13:23:45;100034.16;;;12.56;76.13
46347;BME280;32057;47.830;19.046;2023-02-21T13:29:29;100047.16;;;12.48;76.93
46347;BME280;32057;47.830;19.046;2023-02-21T13:31:59;100034.09;;;12.45;76.76
46347;BME280;32057;47.830;19.046;2023-02-21T13:34:30;100027.09;;;12.38;76.97
46347;BME280;32057;47.830;19.046;2023-02-21T13:37:01;100026.16;;;12.36;77.68
46347;BME280;32057;47.830;19.046;2023-02-21T13:39:31;100020.16;;;12.43;77.68
46347;BME280;32057;47.830;19.046;2023-02-21T13:42:09;100025.38;;;12.40;77.87
46347;BME280;32057;47.830;19.046;2023-02-21T13:44:39;100031.50;;;12.48;77.85
46347;BME280;32057;47.830;19.046;2023-02-21T13:47:08;100042.88;;;12.57;77.70
46347;BME280;32057;47.830;19.046;2023-02-21T13:49:57;100035.94;;;12.60;77.58
46347;BME280;32057;47.830;19.046;2023-02-21T13:52:24;100035.94;;;12.62;77.71
46347;BME280;32057;47.830;19.046;2023-02-21T13:57:38;100029.91;;;12.64;77.65
46347;BME280;32057;47.830;19.046;2023-02-21T14:08:28;100012.31;;;12.40;78.55
46347;BME280;32057;47.830;19.046;2023-02-21T14:13:39;99997.78;;;12.79;78.23
46347;BME280;32057;47.830;19.046;2023-02-21T14:16:14;99998.69;;;12.84;77.24
46347;BME280;32057;47.830;19.046;2023-02-21T14:18:44;99990.88;;;12.90;76.82
46347;BME280;32057;47.830;19.046;2023-02-21T14:21:23;99980.38;;;12.80;75.72
46347;BME280;32057;47.830;19.046;2023-02-21T14:26:50;99983.84;;;12.82;76.52
46347;BME280;32057;47.830;19.046;2023-02-21T14:39:53;99995.13;;;12.73;76.55
46347;BME280;32057;47.830;19.046;2023-02-21T14:42:32;99982.91;;;12.69;76.50
46347;BME280;32057;47.830;19.046;2023-02-21T14:53:21;99986.34;;;12.62;77.02
46347;BME280;32057;47.830;19.046;2023-02-21T15:07:06;99983.66;;;12.49;77.69
46347;BME280;32057;47.830;19.046;2023-02-21T15:09:34;99978.44;;;12.46;77.79
46347;BME280;32057;47.830;19.046;2023-02-21T15:12:00;99982.78;;;12.44;77.06
46347;BME280;32057;47.830;19.046;2023-02-21T15:14:29;99987.09;;;12.45;77.52
46347;BME280;32057;47.830;19.046;2023-02-21T15:17:12;99977.50;;;12.40;77.28
46347;BME280;32057;47.830;19.046;2023-02-21T15:19:40;99988.81;;;12.39;76.81
46347;BME280;32057;47.830;19.046;2023-02-21T15:22:17;99984.38;;;12.30;78.00
46347;BME280;32057;47.830;19.046;2023-02-21T15:27:54;99994.84;;;12.31;77.52
46347;BME280;32057;47.830;19.046;2023-02-21T15:33:12;99997.47;;;12.34;77.72
46347;BME280;32057;47.830;19.046;2023-02-21T15:35:43;99989.66;;;12.34;77.79
46347;BME280;32057;47.830;19.046;2023-02-21T15:38:15;99990.53;;;12.37;77.96
46347;BME280;32057;47.830;19.046;2023-02-21T15:40:42;99997.47;;;12.33;77.40
46347;BME280;32057;47.830;19.046;2023-02-21T15:43:34;99992.19;;;12.27;78.30
46347;BME280;32057;47.830;19.046;2023-02-21T15:46:03;99993.06;;;12.27;78.41
46347;BME280;32057;47.830;19.046;2023-02-21T15:48:29;99990.47;;;12.29;78.47
46347;BME280;32057;47.830;19.046;2023-02-21T15:51:00;99998.28;;;12.27;77.89
46347;BME280;32057;47.830;19.046;2023-02-21T15:53:27;99992.16;;;12.24;78.31
46347;BME280;32057;47.830;19.046;2023-02-21T15:55:52;99991.25;;;12.17;78.82